sensor_id;sensor_type;location;lat;lon;timestamp;P1;durP1;ratioP1;P2;durP2;ratioP2
36359;SDS011;22388;52.432;20.662;2023-05-07T00:00:14;11.23;;;5.28;;
36359;SDS011;22388;52.432;20.662;2023-05-07T00:03:38;7.65;;;4.13;;
36359;SDS011;22388;52.432;20.662;2023-05-07T00:07:03;9.32;;;4.68;;
36359;SDS011;22388;52.432;20.662;2023-05-07T00:10:28;10.35;;;5.13;;
36359;SDS011;22388;52.432;20.662;2023-05-07T00:13:52;10.10;;;4.70;;
36359;SDS011;22388;52.432;20.662;2023-05-07T00:17:17;8.95;;;5.07;;
36359;SDS011;22388;52.432;20.662;2023-05-07T00:20:41;8.25;;;4.78;;
36359;SDS011;22388;52.432;20.662;2023-05-07T00:24:05;9.65;;;5.00;;
36359;SDS011;22388;52.432;20.662;2023-05-07T00:27:30;11.90;;;4.70;;
36359;SDS011;22388;52.432;20.662;2023-05-07T00:30:54;11.68;;;4.80;;
36359;SDS011;22388;52.432;20.662;2023-05-07T00:34:19;9.52;;;4.82;;
36359;SDS011;22388;52.432;20.662;2023-05-07T00:37:44;7.80;;;4.93;;
36359;SDS011;22388;52.432;20.662;2023-05-07T00:41:08;9.13;;;5.35;;
36359;SDS011;22388;52.432;20.662;2023-05-07T00:44:33;7.68;;;4.63;;
36359;SDS011;22388;52.432;20.662;2023-05-07T00:47:58;8.63;;;4.85;;
36359;SDS011;22388;52.432;20.662;2023-05-07T00:51:23;9.27;;;5.35;;
36359;SDS011;22388;52.432;20.662;2023-05-07T00:54:49;9.82;;;5.28;;
36359;SDS011;22388;52.432;20.662;2023-05-07T00:58:13;9.25;;;4.88;;
36359;SDS011;22388;52.432;20.662;2023-05-07T01:01:37;8.50;;;4.90;;
36359;SDS011;22388;52.432;20.662;2023-05-07T01:05:02;10.48;;;4.90;;
36359;SDS011;22388;52.432;20.662;2023-05-07T01:08:28;9.77;;;5.25;;
36359;SDS011;22388;52.432;20.662;2023-05-07T01:11:52;12.38;;;5.25;;
36359;SDS011;22388;52.432;20.662;2023-05-07T01:15:17;6.78;;;4.50;;
36359;SDS011;22388;52.432;20.662;2023-05-07T01:18:41;9.15;;;4.82;;
36359;SDS011;22388;52.432;20.662;2023-05-07T01:22:09;9.90;;;5.57;;
36359;SDS011;22388;52.432;20.662;2023-05-07T01:25:33;8.00;;;5.05;;
36359;SDS011;22388;52.432;20.662;2023-05-07T01:28:58;9.35;;;4.82;;
36359;SDS011;22388;52.432;20.662;2023-05-07T01:36:05;9.52;;;4.97;;
36359;SDS011;22388;52.432;20.662;2023-05-07T01:39:31;6.60;;;4.05;;
36359;SDS011;22388;52.432;20.662;2023-05-07T01:42:56;8.02;;;4.60;;
36359;SDS011;22388;52.432;20.662;2023-05-07T01:46:21;11.60;;;4.60;;
36359;SDS011;22388;52.432;20.662;2023-05-07T01:49:45;8.02;;;3.80;;
36359;SDS011;22388;52.432;20.662;2023-05-07T01:53:09;7.82;;;3.55;;
36359;SDS011;22388;52.432;20.662;2023-05-07T01:56:34;7.85;;;4.07;;
36359;SDS011;22388;52.432;20.662;2023-05-07T01:59:58;6.72;;;3.85;;
36359;SDS011;22388;52.432;20.662;2023-05-07T02:03:22;7.55;;;3.75;;
36359;SDS011;22388;52.432;20.662;2023-05-07T02:06:47;8.05;;;3.80;;
36359;SDS011;22388;52.432;20.662;2023-05-07T02:10:11;7.78;;;4.05;;
36359;SDS011;22388;52.432;20.662;2023-05-07T02:13:36;7.55;;;3.45;;
36359;SDS011;22388;52.432;20.662;2023-05-07T02:17:00;5.93;;;3.25;;
36359;SDS011;22388;52.432;20.662;2023-05-07T02:20:25;5.30;;;3.05;;
36359;SDS011;22388;52.432;20.662;2023-05-07T02:23:50;6.15;;;2.97;;
36359;SDS011;22388;52.432;20.662;2023-05-07T02:27:14;4.32;;;3.13;;
36359;SDS011;22388;52.432;20.662;2023-05-07T02:30:39;5.00;;;3.10;;
36359;SDS011;22388;52.432;20.662;2023-05-07T02:34:03;5.20;;;3.25;;
36359;SDS011;22388;52.432;20.662;2023-05-07T02:37:27;4.57;;;2.50;;
36359;SDS011;22388;52.432;20.662;2023-05-07T02:40:51;5.97;;;2.92;;
36359;SDS011;22388;52.432;20.662;2023-05-07T02:44:15;5.35;;;2.50;;
36359;SDS011;22388;52.432;20.662;2023-05-07T02:47:40;4.05;;;2.50;;
36359;SDS011;22388;52.432;20.662;2023-05-07T02:51:04;6.95;;;2.60;;
36359;SDS011;22388;52.432;20.662;2023-05-07T02:54:28;4.82;;;2.97;;
36359;SDS011;22388;52.432;20.662;2023-05-07T02:57:52;4.35;;;2.60;;
36359;SDS011;22388;52.432;20.662;2023-05-07T03:01:16;4.65;;;2.47;;
36359;SDS011;22388;52.432;20.662;2023-05-07T03:04:40;5.00;;;2.30;;
36359;SDS011;22388;52.432;20.662;2023-05-07T03:08:04;8.43;;;2.08;;
36359;SDS011;22388;52.432;20.662;2023-05-07T03:11:28;4.13;;;2.13;;
36359;SDS011;22388;52.432;20.662;2023-05-07T03:14:52;3.47;;;1.63;;
36359;SDS011;22388;52.432;20.662;2023-05-07T03:18:17;4.32;;;2.10;;
36359;SDS011;22388;52.432;20.662;2023-05-07T03:21:41;5.13;;;2.00;;
36359;SDS011;22388;52.432;20.662;2023-05-07T03:25:05;3.85;;;2.10;;
36359;SDS011;22388;52.432;20.662;2023-05-07T03:28:30;5.25;;;2.42;;
36359;SDS011;22388;52.432;20.662;2023-05-07T03:31:54;5.22;;;2.30;;
36359;SDS011;22388;52.432;20.662;2023-05-07T03:35:18;3.85;;;2.30;;
36359;SDS011;22388;52.432;20.662;2023-05-07T03:38:43;5.93;;;2.60;;
36359;SDS011;22388;52.432;20.662;2023-05-07T03:42:07;4.35;;;2.55;;
36359;SDS011;22388;52.432;20.662;2023-05-07T03:45:31;13.05;;;2.83;;
36359;SDS011;22388;52.432;20.662;2023-05-07T03:48:56;3.60;;;2.28;;
36359;SDS011;22388;52.432;20.662;2023-05-07T03:52:20;4.70;;;2.33;;
36359;SDS011;22388;52.432;20.662;2023-05-07T03:55:44;4.70;;;3.00;;
36359;SDS011;22388;52.432;20.662;2023-05-07T03:59:09;3.95;;;2.50;;
36359;SDS011;22388;52.432;20.662;2023-05-07T04:02:33;6.20;;;2.40;;
36359;SDS011;22388;52.432;20.662;2023-05-07T04:05:57;6.25;;;2.40;;
36359;SDS011;22388;52.432;20.662;2023-05-07T04:09:21;3.97;;;2.67;;
36359;SDS011;22388;52.432;20.662;2023-05-07T04:12:45;7.32;;;2.42;;
36359;SDS011;22388;52.432;20.662;2023-05-07T04:16:09;4.88;;;2.65;;
36359;SDS011;22388;52.432;20.662;2023-05-07T04:19:35;5.72;;;2.25;;
36359;SDS011;22388;52.432;20.662;2023-05-07T04:23:01;5.20;;;2.38;;
36359;SDS011;22388;52.432;20.662;2023-05-07T04:26:25;6.30;;;2.47;;
36359;SDS011;22388;52.432;20.662;2023-05-07T04:29:50;5.65;;;2.35;;
36359;SDS011;22388;52.432;20.662;2023-05-07T04:33:14;6.13;;;2.40;;
36359;SDS011;22388;52.432;20.662;2023-05-07T04:36:39;3.60;;;2.22;;
36359;SDS011;22388;52.432;20.662;2023-05-07T04:40:03;4.95;;;2.05;;
36359;SDS011;22388;52.432;20.662;2023-05-07T04:43:28;3.92;;;2.67;;
36359;SDS011;22388;52.432;20.662;2023-05-07T04:46:52;4.72;;;2.42;;
36359;SDS011;22388;52.432;20.662;2023-05-07T04:50:16;6.63;;;3.25;;
36359;SDS011;22388;52.432;20.662;2023-05-07T04:53:40;6.38;;;2.40;;
36359;SDS011;22388;52.432;20.662;2023-05-07T04:57:04;5.57;;;2.45;;
36359;SDS011;22388;52.432;20.662;2023-05-07T05:00:30;6.55;;;2.60;;
36359;SDS011;22388;52.432;20.662;2023-05-07T05:03:54;4.00;;;2.55;;
36359;SDS011;22388;52.432;20.662;2023-05-07T05:07:18;5.25;;;2.33;;
36359;SDS011;22388;52.432;20.662;2023-05-07T05:10:42;4.45;;;2.30;;
36359;SDS011;22388;52.432;20.662;2023-05-07T05:14:07;4.63;;;2.50;;
36359;SDS011;22388;52.432;20.662;2023-05-07T05:17:31;4.22;;;2.28;;
36359;SDS011;22388;52.432;20.662;2023-05-07T05:20:55;4.20;;;2.50;;
36359;SDS011;22388;52.432;20.662;2023-05-07T05:24:20;4.95;;;2.72;;
36359;SDS011;22388;52.432;20.662;2023-05-07T05:27:44;6.13;;;2.60;;
36359;SDS011;22388;52.432;20.662;2023-05-07T05:31:08;3.95;;;2.45;;
36359;SDS011;22388;52.432;20.662;2023-05-07T05:34:32;7.05;;;3.20;;
36359;SDS011;22388;52.432;20.662;2023-05-07T05:37:57;7.20;;;3.05;;
36359;SDS011;22388;52.432;20.662;2023-05-07T05:41:21;5.82;;;3.28;;
36359;SDS011;22388;52.432;20.662;2023-05-07T05:44:45;4.60;;;2.70;;
36359;SDS011;22388;52.432;20.662;2023-05-07T05:48:09;6.15;;;2.90;;
36359;SDS011;22388;52.432;20.662;2023-05-07T05:51:33;4.63;;;2.70;;
36359;SDS011;22388;52.432;20.662;2023-05-07T05:54:57;5.50;;;2.92;;
36359;SDS011;22388;52.432;20.662;2023-05-07T05:58:21;4.72;;;2.95;;
36359;SDS011;22388;52.432;20.662;2023-05-07T06:01:46;6.03;;;2.53;;
36359;SDS011;22388;52.432;20.662;2023-05-07T06:05:10;5.65;;;2.70;;
36359;SDS011;22388;52.432;20.662;2023-05-07T06:08:34;7.05;;;2.40;;
36359;SDS011;22388;52.432;20.662;2023-05-07T06:11:58;5.60;;;2.58;;
36359;SDS011;22388;52.432;20.662;2023-05-07T06:15:22;4.82;;;2.58;;
36359;SDS011;22388;52.432;20.662;2023-05-07T06:18:46;6.15;;;2.97;;
36359;SDS011;22388;52.432;20.662;2023-05-07T06:22:10;7.78;;;3.13;;
36359;SDS011;22388;52.432;20.662;2023-05-07T06:25:34;5.22;;;2.35;;
36359;SDS011;22388;52.432;20.662;2023-05-07T06:28:58;4.07;;;2.00;;
36359;SDS011;22388;52.432;20.662;2023-05-07T06:32:22;10.18;;;2.85;;
36359;SDS011;22388;52.432;20.662;2023-05-07T06:35:47;5.22;;;2.45;;
36359;SDS011;22388;52.432;20.662;2023-05-07T06:39:11;4.88;;;2.72;;
36359;SDS011;22388;52.432;20.662;2023-05-07T06:42:36;6.53;;;2.30;;
36359;SDS011;22388;52.432;20.662;2023-05-07T06:46:00;5.07;;;2.00;;
36359;SDS011;22388;52.432;20.662;2023-05-07T06:49:24;2.80;;;1.73;;
36359;SDS011;22388;52.432;20.662;2023-05-07T06:53:00;3.08;;;1.70;;
36359;SDS011;22388;52.432;20.662;2023-05-07T06:56:25;3.33;;;1.98;;
36359;SDS011;22388;52.432;20.662;2023-05-07T06:59:49;4.72;;;2.30;;
36359;SDS011;22388;52.432;20.662;2023-05-07T07:03:13;3.70;;;2.05;;
36359;SDS011;22388;52.432;20.662;2023-05-07T07:06:38;3.30;;;2.05;;
36359;SDS011;22388;52.432;20.662;2023-05-07T07:10:02;6.70;;;1.98;;
36359;SDS011;22388;52.432;20.662;2023-05-07T07:13:26;3.15;;;2.00;;
36359;SDS011;22388;52.432;20.662;2023-05-07T07:16:50;2.65;;;1.70;;
36359;SDS011;22388;52.432;20.662;2023-05-07T07:20:14;3.42;;;2.00;;
36359;SDS011;22388;52.432;20.662;2023-05-07T07:23:38;5.45;;;1.80;;
36359;SDS011;22388;52.432;20.662;2023-05-07T07:27:02;3.95;;;1.90;;
36359;SDS011;22388;52.432;20.662;2023-05-07T07:30:27;7.32;;;2.00;;
36359;SDS011;22388;52.432;20.662;2023-05-07T07:33:51;3.53;;;1.70;;
36359;SDS011;22388;52.432;20.662;2023-05-07T07:37:15;5.20;;;2.50;;
36359;SDS011;22388;52.432;20.662;2023-05-07T07:40:39;2.75;;;2.03;;
36359;SDS011;22388;52.432;20.662;2023-05-07T07:44:03;4.28;;;1.85;;
36359;SDS011;22388;52.432;20.662;2023-05-07T07:47:28;2.70;;;1.63;;
36359;SDS011;22388;52.432;20.662;2023-05-07T07:50:52;2.80;;;2.05;;
36359;SDS011;22388;52.432;20.662;2023-05-07T07:54:16;4.80;;;1.80;;
36359;SDS011;22388;52.432;20.662;2023-05-07T07:57:46;2.88;;;1.90;;
36359;SDS011;22388;52.432;20.662;2023-05-07T08:01:10;4.07;;;2.10;;
36359;SDS011;22388;52.432;20.662;2023-05-07T08:04:34;4.65;;;2.00;;
36359;SDS011;22388;52.432;20.662;2023-05-07T08:07:58;4.28;;;1.80;;
36359;SDS011;22388;52.432;20.662;2023-05-07T08:11:22;16.45;;;2.72;;
36359;SDS011;22388;52.432;20.662;2023-05-07T08:14:46;4.65;;;1.88;;
36359;SDS011;22388;52.432;20.662;2023-05-07T08:18:10;3.72;;;2.30;;
36359;SDS011;22388;52.432;20.662;2023-05-07T08:21:38;5.72;;;2.03;;
36359;SDS011;22388;52.432;20.662;2023-05-07T08:25:02;5.00;;;1.85;;
36359;SDS011;22388;52.432;20.662;2023-05-07T08:28:27;4.20;;;1.67;;
36359;SDS011;22388;52.432;20.662;2023-05-07T08:31:51;2.90;;;1.80;;
36359;SDS011;22388;52.432;20.662;2023-05-07T08:35:15;6.82;;;1.80;;
36359;SDS011;22388;52.432;20.662;2023-05-07T08:38:39;2.72;;;1.70;;
36359;SDS011;22388;52.432;20.662;2023-05-07T08:42:04;3.25;;;1.65;;
36359;SDS011;22388;52.432;20.662;2023-05-07T08:45:28;3.97;;;1.65;;
36359;SDS011;22388;52.432;20.662;2023-05-07T08:48:54;3.55;;;1.92;;
36359;SDS011;22388;52.432;20.662;2023-05-07T08:52:19;7.32;;;2.20;;
36359;SDS011;22388;52.432;20.662;2023-05-07T08:55:44;6.97;;;2.00;;
36359;SDS011;22388;52.432;20.662;2023-05-07T08:59:08;5.25;;;1.98;;
36359;SDS011;22388;52.432;20.662;2023-05-07T09:02:34;4.18;;;1.92;;
36359;SDS011;22388;52.432;20.662;2023-05-07T09:05:59;6.13;;;1.90;;
36359;SDS011;22388;52.432;20.662;2023-05-07T09:09:28;6.68;;;1.52;;
36359;SDS011;22388;52.432;20.662;2023-05-07T09:12:54;2.97;;;1.60;;
36359;SDS011;22388;52.432;20.662;2023-05-07T09:16:20;5.40;;;1.85;;
36359;SDS011;22388;52.432;20.662;2023-05-07T09:19:48;3.67;;;1.80;;
36359;SDS011;22388;52.432;20.662;2023-05-07T09:23:12;4.90;;;2.10;;
36359;SDS011;22388;52.432;20.662;2023-05-07T09:26:36;3.92;;;1.60;;
36359;SDS011;22388;52.432;20.662;2023-05-07T09:30:06;2.50;;;1.60;;
36359;SDS011;22388;52.432;20.662;2023-05-07T09:33:31;7.72;;;1.60;;
36359;SDS011;22388;52.432;20.662;2023-05-07T09:36:55;4.50;;;1.73;;
36359;SDS011;22388;52.432;20.662;2023-05-07T09:40:27;3.80;;;1.52;;
36359;SDS011;22388;52.432;20.662;2023-05-07T09:43:54;4.75;;;1.58;;
36359;SDS011;22388;52.432;20.662;2023-05-07T09:47:19;2.78;;;1.50;;
36359;SDS011;22388;52.432;20.662;2023-05-07T09:50:49;4.88;;;1.80;;
36359;SDS011;22388;52.432;20.662;2023-05-07T09:54:16;5.97;;;1.98;;
36359;SDS011;22388;52.432;20.662;2023-05-07T09:57:41;2.95;;;1.70;;
36359;SDS011;22388;52.432;20.662;2023-05-07T10:01:06;5.20;;;1.67;;
36359;SDS011;22388;52.432;20.662;2023-05-07T10:04:31;5.00;;;1.90;;
36359;SDS011;22388;52.432;20.662;2023-05-07T10:07:55;3.72;;;1.63;;
36359;SDS011;22388;52.432;20.662;2023-05-07T10:11:21;4.10;;;1.85;;
36359;SDS011;22388;52.432;20.662;2023-05-07T10:14:45;6.40;;;2.00;;
36359;SDS011;22388;52.432;20.662;2023-05-07T10:18:09;2.55;;;1.60;;
36359;SDS011;22388;52.432;20.662;2023-05-07T10:21:36;4.30;;;1.60;;
36359;SDS011;22388;52.432;20.662;2023-05-07T10:25:14;3.08;;;1.60;;
36359;SDS011;22388;52.432;20.662;2023-05-07T10:28:39;5.25;;;1.70;;
36359;SDS011;22388;52.432;20.662;2023-05-07T10:32:38;5.22;;;1.92;;
36359;SDS011;22388;52.432;20.662;2023-05-07T10:36:03;5.55;;;2.00;;
36359;SDS011;22388;52.432;20.662;2023-05-07T10:39:29;6.35;;;1.70;;
36359;SDS011;22388;52.432;20.662;2023-05-07T10:42:57;3.67;;;1.60;;
36359;SDS011;22388;52.432;20.662;2023-05-07T10:46:21;6.55;;;1.92;;
36359;SDS011;22388;52.432;20.662;2023-05-07T11:04:12;2.85;;;1.50;;
36359;SDS011;22388;52.432;20.662;2023-05-07T11:07:41;5.70;;;1.58;;
36359;SDS011;22388;52.432;20.662;2023-05-07T11:11:17;3.15;;;1.45;;
36359;SDS011;22388;52.432;20.662;2023-05-07T11:14:43;4.15;;;1.38;;
36359;SDS011;22388;52.432;20.662;2023-05-07T11:18:09;2.50;;;1.40;;
36359;SDS011;22388;52.432;20.662;2023-05-07T11:21:40;10.48;;;1.85;;
36359;SDS011;22388;52.432;20.662;2023-05-07T11:25:06;5.93;;;1.80;;
36359;SDS011;22388;52.432;20.662;2023-05-07T11:28:40;2.85;;;1.65;;
36359;SDS011;22388;52.432;20.662;2023-05-07T11:32:05;5.10;;;1.67;;
36359;SDS011;22388;52.432;20.662;2023-05-07T11:35:29;7.65;;;1.70;;
36359;SDS011;22388;52.432;20.662;2023-05-07T11:38:55;4.40;;;1.80;;
36359;SDS011;22388;52.432;20.662;2023-05-07T11:42:36;4.82;;;1.67;;
36359;SDS011;22388;52.432;20.662;2023-05-07T11:46:08;3.03;;;1.55;;
36359;SDS011;22388;52.432;20.662;2023-05-07T11:49:32;7.97;;;1.60;;
36359;SDS011;22388;52.432;20.662;2023-05-07T11:52:58;4.55;;;1.63;;
36359;SDS011;22388;52.432;20.662;2023-05-07T11:56:22;2.78;;;1.67;;
36359;SDS011;22388;52.432;20.662;2023-05-07T11:59:47;4.95;;;1.65;;
36359;SDS011;22388;52.432;20.662;2023-05-07T12:06:47;3.63;;;1.50;;
36359;SDS011;22388;52.432;20.662;2023-05-07T12:10:11;3.45;;;1.58;;
36359;SDS011;22388;52.432;20.662;2023-05-07T12:13:38;4.22;;;1.42;;
36359;SDS011;22388;52.432;20.662;2023-05-07T12:17:06;3.63;;;1.90;;
36359;SDS011;22388;52.432;20.662;2023-05-07T12:20:31;5.55;;;1.63;;
36359;SDS011;22388;52.432;20.662;2023-05-07T12:23:56;5.32;;;1.63;;
36359;SDS011;22388;52.432;20.662;2023-05-07T12:27:23;4.60;;;1.95;;
36359;SDS011;22388;52.432;20.662;2023-05-07T12:30:47;3.38;;;1.55;;
36359;SDS011;22388;52.432;20.662;2023-05-07T12:34:12;5.18;;;1.85;;
36359;SDS011;22388;52.432;20.662;2023-05-07T12:37:36;4.30;;;2.10;;
36359;SDS011;22388;52.432;20.662;2023-05-07T12:41:00;3.55;;;1.88;;
36359;SDS011;22388;52.432;20.662;2023-05-07T12:44:25;5.88;;;1.70;;
36359;SDS011;22388;52.432;20.662;2023-05-07T12:47:52;8.45;;;2.00;;
36359;SDS011;22388;52.432;20.662;2023-05-07T12:51:16;3.65;;;1.80;;
36359;SDS011;22388;52.432;20.662;2023-05-07T12:54:40;3.72;;;1.45;;
36359;SDS011;22388;52.432;20.662;2023-05-07T12:58:19;4.88;;;1.60;;
36359;SDS011;22388;52.432;20.662;2023-05-07T13:01:44;3.10;;;1.80;;
36359;SDS011;22388;52.432;20.662;2023-05-07T13:05:09;4.18;;;1.67;;
36359;SDS011;22388;52.432;20.662;2023-05-07T13:08:40;2.67;;;1.67;;
36359;SDS011;22388;52.432;20.662;2023-05-07T13:12:04;3.50;;;1.60;;
36359;SDS011;22388;52.432;20.662;2023-05-07T13:15:29;3.40;;;1.52;;
36359;SDS011;22388;52.432;20.662;2023-05-07T13:18:53;13.10;;;2.03;;
36359;SDS011;22388;52.432;20.662;2023-05-07T13:22:17;5.65;;;1.50;;
36359;SDS011;22388;52.432;20.662;2023-05-07T13:25:41;3.00;;;1.60;;
36359;SDS011;22388;52.432;20.662;2023-05-07T13:29:05;5.45;;;1.60;;
36359;SDS011;22388;52.432;20.662;2023-05-07T13:32:30;2.20;;;1.55;;
36359;SDS011;22388;52.432;20.662;2023-05-07T13:35:54;2.38;;;1.45;;
36359;SDS011;22388;52.432;20.662;2023-05-07T13:39:18;3.50;;;1.90;;
36359;SDS011;22388;52.432;20.662;2023-05-07T13:42:42;6.60;;;1.33;;
36359;SDS011;22388;52.432;20.662;2023-05-07T13:46:06;2.97;;;1.60;;
36359;SDS011;22388;52.432;20.662;2023-05-07T13:49:30;3.22;;;1.60;;
36359;SDS011;22388;52.432;20.662;2023-05-07T13:52:55;3.63;;;1.48;;
36359;SDS011;22388;52.432;20.662;2023-05-07T13:56:19;2.92;;;1.58;;
36359;SDS011;22388;52.432;20.662;2023-05-07T13:59:43;4.53;;;1.67;;
36359;SDS011;22388;52.432;20.662;2023-05-07T14:03:10;2.08;;;1.60;;
36359;SDS011;22388;52.432;20.662;2023-05-07T14:06:36;7.43;;;1.80;;
36359;SDS011;22388;52.432;20.662;2023-05-07T14:10:01;6.50;;;1.48;;
36359;SDS011;22388;52.432;20.662;2023-05-07T14:13:27;2.42;;;1.63;;
36359;SDS011;22388;52.432;20.662;2023-05-07T14:16:53;6.03;;;1.60;;
36359;SDS011;22388;52.432;20.662;2023-05-07T14:20:20;3.38;;;1.85;;
36359;SDS011;22388;52.432;20.662;2023-05-07T14:23:45;2.78;;;1.45;;
36359;SDS011;22388;52.432;20.662;2023-05-07T14:27:10;2.83;;;1.33;;
36359;SDS011;22388;52.432;20.662;2023-05-07T14:30:35;3.45;;;1.48;;
36359;SDS011;22388;52.432;20.662;2023-05-07T14:34:00;4.38;;;1.60;;
36359;SDS011;22388;52.432;20.662;2023-05-07T14:37:25;5.80;;;1.73;;
36359;SDS011;22388;52.432;20.662;2023-05-07T14:40:49;7.07;;;1.50;;
36359;SDS011;22388;52.432;20.662;2023-05-07T14:44:13;4.53;;;1.63;;
36359;SDS011;22388;52.432;20.662;2023-05-07T14:47:38;4.53;;;1.50;;
36359;SDS011;22388;52.432;20.662;2023-05-07T14:51:03;3.35;;;1.42;;
36359;SDS011;22388;52.432;20.662;2023-05-07T14:54:28;4.53;;;1.70;;
36359;SDS011;22388;52.432;20.662;2023-05-07T14:57:52;4.35;;;1.50;;
36359;SDS011;22388;52.432;20.662;2023-05-07T15:01:17;2.75;;;1.50;;
36359;SDS011;22388;52.432;20.662;2023-05-07T15:04:44;5.32;;;1.50;;
36359;SDS011;22388;52.432;20.662;2023-05-07T15:08:09;3.25;;;1.70;;
36359;SDS011;22388;52.432;20.662;2023-05-07T15:11:34;11.73;;;1.70;;
36359;SDS011;22388;52.432;20.662;2023-05-07T15:14:59;6.00;;;1.55;;
36359;SDS011;22388;52.432;20.662;2023-05-07T15:18:23;4.65;;;1.38;;
36359;SDS011;22388;52.432;20.662;2023-05-07T15:21:50;3.42;;;1.35;;
36359;SDS011;22388;52.432;20.662;2023-05-07T15:25:17;4.43;;;1.50;;
36359;SDS011;22388;52.432;20.662;2023-05-07T15:28:42;2.70;;;1.60;;
36359;SDS011;22388;52.432;20.662;2023-05-07T15:32:06;1.92;;;1.40;;
36359;SDS011;22388;52.432;20.662;2023-05-07T15:35:31;4.13;;;1.73;;
36359;SDS011;22388;52.432;20.662;2023-05-07T15:38:56;2.85;;;1.40;;
36359;SDS011;22388;52.432;20.662;2023-05-07T15:42:21;5.28;;;1.40;;
36359;SDS011;22388;52.432;20.662;2023-05-07T15:45:47;2.95;;;1.48;;
36359;SDS011;22388;52.432;20.662;2023-05-07T15:49:11;3.35;;;1.40;;
36359;SDS011;22388;52.432;20.662;2023-05-07T15:52:37;3.35;;;1.30;;
36359;SDS011;22388;52.432;20.662;2023-05-07T15:56:04;2.53;;;1.40;;
36359;SDS011;22388;52.432;20.662;2023-05-07T15:59:31;3.92;;;1.65;;
36359;SDS011;22388;52.432;20.662;2023-05-07T16:02:56;4.43;;;1.80;;
36359;SDS011;22388;52.432;20.662;2023-05-07T16:06:21;13.80;;;3.30;;
36359;SDS011;22388;52.432;20.662;2023-05-07T16:09:47;15.95;;;3.72;;
36359;SDS011;22388;52.432;20.662;2023-05-07T16:13:13;9.73;;;1.70;;
36359;SDS011;22388;52.432;20.662;2023-05-07T16:16:39;2.55;;;1.30;;
36359;SDS011;22388;52.432;20.662;2023-05-07T16:20:05;4.38;;;1.65;;
36359;SDS011;22388;52.432;20.662;2023-05-07T16:23:32;2.63;;;1.35;;
36359;SDS011;22388;52.432;20.662;2023-05-07T16:26:57;19.05;;;5.53;;
36359;SDS011;22388;52.432;20.662;2023-05-07T16:30:23;4.88;;;1.70;;
36359;SDS011;22388;52.432;20.662;2023-05-07T16:33:47;3.88;;;1.40;;
36359;SDS011;22388;52.432;20.662;2023-05-07T16:37:12;6.63;;;1.50;;
36359;SDS011;22388;52.432;20.662;2023-05-07T16:40:38;4.43;;;1.75;;
36359;SDS011;22388;52.432;20.662;2023-05-07T16:44:03;4.22;;;1.75;;
36359;SDS011;22388;52.432;20.662;2023-05-07T16:47:32;12.52;;;6.45;;
36359;SDS011;22388;52.432;20.662;2023-05-07T16:50:58;4.80;;;1.52;;
36359;SDS011;22388;52.432;20.662;2023-05-07T16:54:23;7.25;;;1.70;;
36359;SDS011;22388;52.432;20.662;2023-05-07T16:57:49;3.47;;;1.70;;
36359;SDS011;22388;52.432;20.662;2023-05-07T17:01:13;3.28;;;1.33;;
36359;SDS011;22388;52.432;20.662;2023-05-07T17:04:37;4.72;;;1.77;;
36359;SDS011;22388;52.432;20.662;2023-05-07T17:08:02;5.05;;;1.80;;
36359;SDS011;22388;52.432;20.662;2023-05-07T17:11:27;6.72;;;1.90;;
36359;SDS011;22388;52.432;20.662;2023-05-07T17:14:51;5.53;;;2.00;;
36359;SDS011;22388;52.432;20.662;2023-05-07T17:18:15;3.47;;;1.80;;
36359;SDS011;22388;52.432;20.662;2023-05-07T17:21:39;6.70;;;1.80;;
36359;SDS011;22388;52.432;20.662;2023-05-07T17:25:03;4.43;;;1.83;;
36359;SDS011;22388;52.432;20.662;2023-05-07T17:28:28;3.95;;;1.90;;
36359;SDS011;22388;52.432;20.662;2023-05-07T17:31:55;3.28;;;1.80;;
36359;SDS011;22388;52.432;20.662;2023-05-07T17:35:21;6.07;;;2.22;;
36359;SDS011;22388;52.432;20.662;2023-05-07T17:38:45;5.43;;;2.10;;
36359;SDS011;22388;52.432;20.662;2023-05-07T17:42:09;4.82;;;1.90;;
36359;SDS011;22388;52.432;20.662;2023-05-07T17:45:33;4.40;;;2.10;;
36359;SDS011;22388;52.432;20.662;2023-05-07T17:48:57;4.30;;;2.00;;
36359;SDS011;22388;52.432;20.662;2023-05-07T17:52:21;5.57;;;2.20;;
36359;SDS011;22388;52.432;20.662;2023-05-07T17:55:48;6.68;;;2.35;;
36359;SDS011;22388;52.432;20.662;2023-05-07T17:59:12;4.32;;;2.30;;
36359;SDS011;22388;52.432;20.662;2023-05-07T18:02:37;4.13;;;2.15;;
36359;SDS011;22388;52.432;20.662;2023-05-07T18:06:01;6.10;;;2.67;;
36359;SDS011;22388;52.432;20.662;2023-05-07T18:09:26;7.40;;;3.10;;
36359;SDS011;22388;52.432;20.662;2023-05-07T18:12:50;7.65;;;2.83;;
36359;SDS011;22388;52.432;20.662;2023-05-07T18:16:14;4.05;;;2.60;;
36359;SDS011;22388;52.432;20.662;2023-05-07T18:19:38;7.72;;;2.60;;
36359;SDS011;22388;52.432;20.662;2023-05-07T18:23:03;7.03;;;2.70;;
36359;SDS011;22388;52.432;20.662;2023-05-07T18:26:27;5.78;;;2.75;;
36359;SDS011;22388;52.432;20.662;2023-05-07T18:29:51;3.95;;;2.50;;
36359;SDS011;22388;52.432;20.662;2023-05-07T18:33:15;6.57;;;2.22;;
36359;SDS011;22388;52.432;20.662;2023-05-07T18:36:40;5.55;;;2.80;;
36359;SDS011;22388;52.432;20.662;2023-05-07T18:40:04;4.60;;;2.92;;
36359;SDS011;22388;52.432;20.662;2023-05-07T18:43:29;7.32;;;3.75;;
36359;SDS011;22388;52.432;20.662;2023-05-07T18:46:56;5.55;;;2.65;;
36359;SDS011;22388;52.432;20.662;2023-05-07T18:50:21;6.43;;;2.70;;
36359;SDS011;22388;52.432;20.662;2023-05-07T18:53:45;7.15;;;3.33;;
36359;SDS011;22388;52.432;20.662;2023-05-07T18:57:10;8.02;;;4.00;;
36359;SDS011;22388;52.432;20.662;2023-05-07T19:00:35;8.23;;;3.95;;
36359;SDS011;22388;52.432;20.662;2023-05-07T19:04:00;8.90;;;3.92;;
36359;SDS011;22388;52.432;20.662;2023-05-07T19:07:24;7.88;;;4.53;;
36359;SDS011;22388;52.432;20.662;2023-05-07T19:10:48;9.80;;;5.15;;
36359;SDS011;22388;52.432;20.662;2023-05-07T19:14:12;10.13;;;4.22;;
36359;SDS011;22388;52.432;20.662;2023-05-07T19:17:37;11.63;;;4.85;;
36359;SDS011;22388;52.432;20.662;2023-05-07T19:21:01;11.35;;;5.65;;
36359;SDS011;22388;52.432;20.662;2023-05-07T19:24:27;13.18;;;6.18;;
36359;SDS011;22388;52.432;20.662;2023-05-07T19:27:51;12.10;;;6.13;;
36359;SDS011;22388;52.432;20.662;2023-05-07T19:31:22;14.43;;;6.18;;
36359;SDS011;22388;52.432;20.662;2023-05-07T19:34:47;12.10;;;6.03;;
36359;SDS011;22388;52.432;20.662;2023-05-07T19:38:11;12.32;;;5.97;;
36359;SDS011;22388;52.432;20.662;2023-05-07T19:41:36;13.00;;;6.38;;
36359;SDS011;22388;52.432;20.662;2023-05-07T19:45:00;12.73;;;6.55;;
36359;SDS011;22388;52.432;20.662;2023-05-07T19:48:24;16.00;;;6.30;;
36359;SDS011;22388;52.432;20.662;2023-05-07T19:51:49;12.18;;;6.40;;
36359;SDS011;22388;52.432;20.662;2023-05-07T19:55:13;11.48;;;6.00;;
36359;SDS011;22388;52.432;20.662;2023-05-07T19:58:39;10.52;;;5.43;;
36359;SDS011;22388;52.432;20.662;2023-05-07T20:02:03;13.63;;;5.93;;
36359;SDS011;22388;52.432;20.662;2023-05-07T20:05:27;12.65;;;5.28;;
36359;SDS011;22388;52.432;20.662;2023-05-07T20:08:51;10.93;;;5.45;;
36359;SDS011;22388;52.432;20.662;2023-05-07T20:12:15;9.75;;;5.05;;
36359;SDS011;22388;52.432;20.662;2023-05-07T20:15:40;9.05;;;4.75;;
36359;SDS011;22388;52.432;20.662;2023-05-07T20:19:12;8.98;;;5.03;;
36359;SDS011;22388;52.432;20.662;2023-05-07T20:26:01;11.20;;;5.15;;
36359;SDS011;22388;52.432;20.662;2023-05-07T20:29:25;10.27;;;5.32;;
36359;SDS011;22388;52.432;20.662;2023-05-07T20:32:49;9.20;;;4.82;;
36359;SDS011;22388;52.432;20.662;2023-05-07T20:36:13;9.43;;;4.57;;
36359;SDS011;22388;52.432;20.662;2023-05-07T20:39:39;10.57;;;4.93;;